This is the latest recevied weather packets stored in our database for station/object KF6ILA. If no packets are shown the sender has not sent any weather packets the latest 10 day(s).
| Time | Temp. | Humidity | Pressure | Rain* | Wind** | Luminosity | Snow |
|---|---|---|---|---|---|---|---|
| 1787497562 | 28.33° C | 30% | 1018.1 hPa | 0 mm | - | 353 W/m² | - |
| 1787496374 | 27.22° C | 36% | 1017.9 hPa | 0 mm | - | 278 W/m² | - |
| 1787495780 | 26.67° C | 38% | 1017.8 hPa | 0 mm | - | 243 W/m² | - |
| 1787495186 | 25.56° C | 40% | 1017.7 hPa | 0 mm | - | 206 W/m² | - |
| 1787494889 | 25.56° C | 41% | 1017.7 hPa | 0 mm | - | 186 W/m² | - |
| 1787494592 | 25° C | 41% | 1017.7 hPa | 0 mm | - | 165 W/m² | - |
| 1787494295 | 25° C | 42% | 1017.6 hPa | 0 mm | - | 141 W/m² | - |
| 1787493998 | 24.44° C | 42% | 1017.6 hPa | 0 mm | - | 114 W/m² | - |
| 1787493701 | 24.44° C | 42% | 1017.6 hPa | 0 mm | - | 98 W/m² | - |
| 1787493404 | 24.44° C | 42% | 1017.6 hPa | 0 mm | - | 77 W/m² | - |
| 1787492810 | 23.89° C | 42% | 1017.6 hPa | 0 mm | - | 44 W/m² | - |
| 1787491919 | 23.89° C | 41% | 1017.4 hPa | 0 mm | - | 12 W/m² | - |
| 1787490434 | 23.89° C | 41% | 1017.1 hPa | 0 mm | - | 0 W/m² | - |
| 1787490137 | 23.89° C | 41% | 1017 hPa | 0 mm | - | 0 W/m² | - |
| 1787489840 | 23.33° C | 42% | 1017.1 hPa | 0 mm | - | 0 W/m² | - |
| 1787489543 | 23.33° C | 43% | 1017.1 hPa | 0 mm | - | 0 W/m² | - |
| 1787489246 | 23.33° C | 43% | 1017.1 hPa | 0 mm | - | 0 W/m² | - |
| 1787488949 | 23.33° C | 43% | 1017.1 hPa | 0 mm | - | 0 W/m² | - |
| 1787488652 | 23.33° C | 42% | 1017 hPa | 0 mm | - | 0 W/m² | - |
| 1787488355 | 23.89° C | 42% | 1017 hPa | 0 mm | - | 0 W/m² | - |
| 1787488058 | 23.89° C | 42% | 1016.9 hPa | 0 mm | - | 0 W/m² | - |
| 1787487761 | 23.89° C | 42% | 1016.8 hPa | 0 mm | - | 0 W/m² | - |
| 1787487464 | 23.89° C | 41% | 1016.8 hPa | 0 mm | - | 0 W/m² | - |
| 1787487167 | 24.44° C | 41% | 1016.8 hPa | 0 mm | - | 0 W/m² | - |
| 1787486870 | 24.44° C | 41% | 1016.7 hPa | 0 mm | - | 0 W/m² | - |
* Rain latest hour (hover to see other rain measurements)
** Current wind speed in m/s (hover to see current wind gust speed)